createdAt,value
2022-08-25T00:02:09.830Z,100.00
2022-08-25T00:04:37.181Z,100.00
2022-08-25T00:07:07.283Z,100.00
2022-08-25T00:09:34.998Z,100.00
2022-08-25T00:12:05.160Z,100.00
2022-08-25T00:14:36.770Z,100.00
2022-08-25T00:17:04.996Z,100.00
2022-08-25T00:19:35.133Z,100.00
2022-08-25T00:22:03.547Z,100.00
2022-08-25T00:24:30.700Z,100.00
2022-08-25T00:26:58.787Z,100.00
2022-08-25T00:29:31.921Z,100.00
2022-08-25T00:31:58.460Z,100.00
2022-08-25T00:34:34.104Z,100.00
2022-08-25T00:37:02.098Z,100.00
2022-08-25T00:39:28.972Z,100.00
2022-08-25T00:41:57.577Z,100.00
2022-08-25T00:44:28.079Z,100.00
2022-08-25T00:46:57.841Z,100.00
2022-08-25T00:49:29.157Z,100.00
2022-08-25T00:52:04.751Z,100.00
2022-08-25T00:54:45.555Z,100.00
2022-08-25T00:57:14.797Z,100.00
2022-08-25T00:59:44.661Z,100.00
2022-08-25T01:02:15.445Z,100.00
2022-08-25T01:04:48.962Z,100.00
2022-08-25T01:07:19.446Z,100.00
2022-08-25T01:09:48.308Z,100.00
2022-08-25T01:12:15.659Z,100.00
2022-08-25T01:14:46.636Z,100.00
2022-08-25T01:17:14.103Z,100.00
2022-08-25T01:19:40.898Z,100.00
2022-08-25T01:22:08.747Z,100.00
2022-08-25T01:24:37.567Z,100.00
2022-08-25T01:27:08.403Z,100.00
2022-08-25T01:29:36.078Z,100.00
2022-08-25T01:32:06.346Z,100.00
2022-08-25T01:34:35.966Z,100.00
2022-08-25T01:37:04.928Z,100.00
2022-08-25T01:39:38.984Z,100.00
2022-08-25T01:42:19.048Z,100.00
2022-08-25T01:44:47.794Z,100.00
2022-08-25T01:47:14.742Z,100.00
2022-08-25T01:49:41.754Z,100.00
2022-08-25T01:52:25.079Z,100.00
2022-08-25T01:54:52.186Z,100.00
2022-08-25T01:57:18.926Z,100.00
2022-08-25T01:59:45.812Z,100.00
2022-08-25T02:02:12.531Z,100.00
2022-08-25T02:04:39.615Z,100.00
2022-08-25T02:07:11.104Z,100.00
2022-08-25T02:09:38.630Z,100.00
2022-08-25T02:12:06.004Z,100.00
2022-08-25T02:14:32.776Z,100.00
2022-08-25T02:16:59.471Z,100.00
2022-08-25T02:19:26.515Z,100.00
2022-08-25T02:21:53.744Z,100.00
2022-08-25T02:24:20.664Z,100.00
2022-08-25T02:26:47.371Z,100.00
2022-08-25T02:29:14.667Z,100.00
2022-08-25T02:31:41.434Z,100.00
2022-08-25T02:34:09.524Z,100.00
2022-08-25T02:36:37.850Z,100.00
2022-08-25T02:39:06.731Z,100.00
2022-08-25T02:41:33.683Z,100.00
2022-08-25T02:44:02.585Z,100.00
2022-08-25T02:46:29.813Z,100.00
2022-08-25T02:48:57.600Z,100.00
2022-08-25T02:51:25.930Z,100.00
2022-08-25T02:53:52.677Z,100.00
2022-08-25T02:56:20.627Z,100.00
2022-08-25T02:58:48.247Z,100.00
2022-08-25T03:01:16.000Z,100.00
2022-08-25T03:03:44.834Z,100.00
2022-08-25T03:06:14.471Z,100.00
2022-08-25T03:08:42.190Z,100.00
2022-08-25T03:11:09.435Z,100.00
2022-08-25T03:13:36.828Z,100.00
2022-08-25T03:16:05.569Z,100.00
2022-08-25T03:18:39.538Z,100.00
2022-08-25T03:21:07.078Z,100.00
2022-08-25T03:23:33.906Z,100.00
2022-08-25T03:26:19.129Z,100.00
2022-08-25T03:28:45.948Z,100.00
2022-08-25T03:31:12.733Z,100.00
2022-08-25T03:33:40.114Z,100.00
2022-08-25T03:36:08.645Z,100.00
2022-08-25T03:38:38.205Z,100.00
2022-08-25T03:41:32.782Z,100.00
2022-08-25T03:44:01.519Z,100.00
2022-08-25T03:46:34.977Z,100.00
2022-08-25T03:49:04.336Z,100.00
2022-08-25T03:51:46.957Z,100.00
2022-08-25T03:54:16.353Z,100.00
2022-08-25T03:56:43.562Z,100.00
2022-08-25T03:59:10.275Z,100.00
2022-08-25T04:01:42.093Z,100.00
2022-08-25T04:04:11.239Z,100.00
2022-08-25T04:06:40.124Z,100.00
2022-08-25T04:09:07.311Z,100.00
2022-08-25T04:11:34.050Z,100.00
2022-08-25T04:14:02.305Z,100.00
2022-08-25T04:16:31.610Z,100.00
2022-08-25T04:19:00.586Z,100.00
2022-08-25T04:21:28.175Z,100.00
2022-08-25T04:23:56.202Z,100.00
2022-08-25T04:26:27.101Z,100.00
2022-08-25T04:28:56.162Z,100.00
2022-08-25T04:31:23.453Z,100.00
2022-08-25T04:33:50.814Z,100.00
2022-08-25T04:36:21.436Z,100.00
2022-08-25T04:38:49.708Z,100.00
2022-08-25T04:41:20.337Z,100.00
2022-08-25T04:43:47.126Z,100.00
2022-08-25T04:46:25.579Z,100.00
2022-08-25T04:48:54.863Z,100.00
2022-08-25T04:51:29.459Z,100.00
2022-08-25T04:54:01.173Z,100.00
2022-08-25T04:56:30.309Z,100.00
2022-08-25T04:58:57.211Z,100.00
2022-08-25T05:01:25.662Z,100.00
2022-08-25T05:03:55.570Z,100.00
2022-08-25T05:06:23.002Z,100.00
2022-08-25T05:08:50.097Z,100.00
2022-08-25T05:11:18.255Z,100.00
2022-08-25T05:13:51.553Z,100.00
2022-08-25T05:16:19.940Z,100.00
2022-08-25T05:18:46.763Z,100.00
2022-08-25T05:21:16.506Z,100.00
2022-08-25T05:23:43.429Z,100.00
2022-08-25T05:26:19.709Z,100.00
2022-08-25T05:28:49.398Z,100.00
2022-08-25T05:31:17.018Z,100.00
2022-08-25T05:33:44.361Z,100.00
2022-08-25T05:36:13.254Z,100.00
2022-08-25T05:38:41.898Z,100.00
2022-08-25T05:41:17.027Z,100.00
2022-08-25T05:43:47.148Z,100.00
2022-08-25T05:46:14.452Z,100.00
2022-08-25T05:48:41.466Z,100.00
2022-08-25T05:51:10.347Z,100.00
2022-08-25T05:53:39.893Z,100.00
2022-08-25T05:56:06.770Z,100.00
2022-08-25T05:58:34.016Z,100.00
2022-08-25T06:01:21.370Z,98.50
2022-08-25T06:03:48.818Z,97.88
2022-08-25T06:06:16.474Z,96.45
2022-08-25T06:08:44.599Z,95.23
2022-08-25T06:11:13.236Z,92.67
2022-08-25T06:13:40.707Z,90.44
2022-08-25T06:16:07.720Z,89.84
2022-08-25T06:18:34.450Z,88.69
2022-08-25T06:21:14.796Z,83.26
2022-08-25T06:23:41.551Z,86.65
2022-08-25T06:26:20.604Z,83.26
2022-08-25T06:28:50.588Z,82.83
2022-08-25T06:31:18.897Z,83.87
2022-08-25T06:33:45.840Z,83.28
2022-08-25T06:36:12.828Z,80.17
2022-08-25T06:38:39.566Z,82.99
2022-08-25T06:41:07.968Z,81.95
2022-08-25T06:43:35.245Z,81.03
2022-08-25T06:46:17.956Z,82.37
2022-08-25T06:48:44.741Z,80.97
2022-08-25T06:51:13.855Z,78.42
2022-08-25T06:53:42.853Z,78.04
2022-08-25T06:56:10.239Z,77.18
2022-08-25T06:58:37.711Z,77.71
2022-08-25T07:01:15.768Z,78.07
2022-08-25T07:03:47.513Z,79.79
2022-08-25T07:06:15.179Z,80.08
2022-08-25T07:08:46.787Z,81.86
2022-08-25T07:11:18.086Z,82.79
2022-08-25T07:13:45.980Z,81.93
2022-08-25T07:16:15.349Z,82.31
2022-08-25T07:18:42.636Z,78.96
2022-08-25T07:21:12.306Z,75.32
2022-08-25T07:23:40.513Z,75.43
2022-08-25T07:26:15.809Z,75.17
2022-08-25T07:28:48.767Z,73.84
2022-08-25T07:31:17.558Z,75.82
2022-08-25T07:34:03.202Z,72.29
2022-08-25T07:36:31.646Z,72.63
2022-08-25T07:38:59.714Z,68.96
2022-08-25T07:41:26.915Z,65.97
2022-08-25T07:43:54.136Z,64.49
2022-08-25T07:46:20.826Z,65.40
2022-08-25T07:48:53.411Z,68.38
2022-08-25T07:51:20.335Z,67.12
2022-08-25T07:53:47.089Z,67.59
2022-08-25T07:56:16.771Z,70.16
2022-08-25T07:58:43.977Z,69.58
2022-08-25T08:01:18.468Z,71.60
2022-08-25T08:03:50.404Z,71.81
2022-08-25T08:06:21.097Z,73.05
2022-08-25T08:08:49.683Z,74.45
2022-08-25T08:11:27.963Z,72.30
2022-08-25T08:13:57.078Z,74.28
2022-08-25T08:16:26.860Z,73.92
2022-08-25T08:18:53.977Z,73.29
2022-08-25T08:21:24.767Z,73.34
2022-08-25T08:23:58.131Z,74.05
2022-08-25T08:26:36.338Z,74.24
2022-08-25T08:29:13.682Z,74.80
2022-08-25T08:31:40.740Z,74.66
2022-08-25T08:34:16.568Z,75.57
2022-08-25T08:36:43.362Z,76.26
2022-08-25T08:39:12.120Z,76.06
2022-08-25T08:42:11.312Z,76.74
2022-08-25T08:44:45.770Z,77.15
2022-08-25T08:47:30.443Z,77.24
2022-08-25T08:50:00.799Z,77.01
2022-08-25T08:52:44.569Z,76.44
2022-08-25T08:55:35.692Z,76.95
2022-08-25T08:58:10.516Z,74.39
2022-08-25T09:00:48.928Z,75.72
2022-08-25T09:03:44.602Z,74.22
2022-08-25T09:06:17.722Z,74.58
2022-08-25T09:08:45.161Z,75.58
2022-08-25T09:11:33.070Z,75.49
2022-08-25T09:14:08.398Z,76.24
2022-08-25T09:16:59.100Z,76.38
2022-08-25T09:20:02.886Z,75.42
2022-08-25T09:22:51.672Z,77.16
2022-08-25T09:28:30.312Z,74.65
2022-08-25T09:31:04.752Z,74.71
2022-08-25T09:33:35.403Z,74.11
2022-08-25T09:36:04.627Z,73.88
2022-08-25T09:38:33.674Z,76.12
2022-08-25T09:41:02.591Z,77.17
2022-08-25T09:43:35.263Z,76.98
2022-08-25T09:46:23.294Z,77.12
2022-08-25T09:48:56.777Z,76.60
2022-08-25T09:51:25.789Z,78.05
2022-08-25T09:53:57.826Z,74.92
2022-08-25T09:56:28.618Z,72.96
2022-08-25T09:59:02.402Z,73.69
2022-08-25T10:01:34.568Z,73.04
2022-08-25T10:04:04.764Z,73.81
2022-08-25T10:06:42.755Z,74.69
2022-08-25T10:09:22.187Z,73.12
2022-08-25T10:11:49.330Z,72.41
2022-08-25T10:14:18.309Z,73.55
2022-08-25T10:16:47.288Z,74.56
2022-08-25T10:19:29.423Z,73.30
2022-08-25T10:22:08.006Z,73.11
2022-08-25T10:24:39.152Z,71.57
2022-08-25T10:27:29.121Z,70.21
2022-08-25T10:30:08.175Z,70.34
2022-08-25T10:32:44.571Z,67.60
2022-08-25T10:35:29.151Z,67.50
2022-08-25T10:38:08.300Z,67.75
2022-08-25T10:40:51.789Z,66.23
2022-08-25T10:43:48.803Z,64.74
2022-08-25T10:46:41.787Z,67.11
2022-08-25T10:49:35.762Z,66.84
2022-08-25T10:52:05.724Z,67.45
2022-08-25T10:54:40.790Z,62.64
2022-08-25T10:57:32.055Z,56.80
2022-08-25T11:00:12.642Z,51.11
2022-08-25T11:03:01.763Z,47.26
2022-08-25T11:05:40.619Z,47.25
2022-08-25T11:08:14.435Z,42.06
2022-08-25T11:10:53.030Z,37.97
2022-08-25T11:13:31.412Z,38.55
2022-08-25T11:16:17.392Z,37.28
2022-08-25T11:19:15.803Z,35.41
2022-08-25T11:21:52.399Z,35.57
2022-08-25T11:24:39.178Z,36.45
2022-08-25T11:27:13.743Z,36.05
2022-08-25T11:29:42.699Z,34.11
2022-08-25T11:32:09.575Z,33.82
2022-08-25T11:34:43.551Z,33.79
2022-08-25T11:37:25.506Z,33.61
2022-08-25T11:40:13.619Z,33.46
2022-08-25T11:42:48.485Z,33.40
2022-08-25T11:45:33.825Z,33.71
2022-08-25T11:48:11.547Z,31.54
2022-08-25T11:50:59.971Z,31.75
2022-08-25T11:53:32.244Z,32.54
2022-08-25T11:56:06.648Z,31.35
2022-08-25T11:58:54.633Z,32.49
2022-08-25T12:01:40.107Z,32.61
2022-08-25T12:04:16.003Z,31.85
2022-08-25T12:07:10.572Z,32.50
2022-08-25T12:09:55.484Z,29.85
2022-08-25T12:12:37.195Z,31.85
2022-08-25T12:15:18.878Z,31.05
2022-08-25T12:18:08.533Z,31.57
2022-08-25T12:20:56.936Z,29.79
2022-08-25T12:24:01.888Z,29.97
2022-08-25T12:26:40.737Z,29.18
2022-08-25T12:29:41.569Z,31.77
2022-08-25T12:32:37.845Z,31.34
2022-08-25T12:35:31.863Z,34.97
2022-08-25T12:38:06.623Z,33.94
2022-08-25T12:40:45.393Z,35.75
2022-08-25T12:43:12.149Z,31.87
2022-08-25T12:45:44.733Z,31.46
2022-08-25T12:48:27.297Z,30.91
2022-08-25T12:51:15.223Z,33.13
2022-08-25T12:53:46.497Z,33.42
2022-08-25T12:56:26.586Z,31.26
2022-08-25T12:59:03.571Z,33.19
2022-08-25T13:02:07.065Z,32.70
2022-08-25T13:04:52.963Z,30.90
2022-08-25T13:07:44.399Z,31.00
2022-08-25T13:10:29.597Z,32.55
2022-08-25T13:13:09.616Z,30.47
2022-08-25T13:15:48.674Z,31.29
2022-08-25T13:18:33.085Z,30.15
2022-08-25T13:21:30.749Z,34.46
2022-08-25T13:24:01.446Z,33.15
2022-08-25T13:26:37.565Z,33.57
2022-08-25T13:29:24.347Z,31.95
2022-08-25T13:31:55.096Z,31.08
2022-08-25T13:34:34.990Z,31.73
2022-08-25T13:37:30.464Z,31.95
2022-08-25T13:40:17.825Z,30.21
2022-08-25T13:42:55.902Z,34.43
2022-08-25T13:45:26.042Z,34.77
2022-08-25T13:47:56.334Z,37.30
2022-08-25T13:50:27.223Z,39.91
2022-08-25T13:53:26.661Z,40.33
2022-08-25T13:56:02.316Z,39.97
2022-08-25T13:58:38.709Z,40.64
2022-08-25T14:01:23.128Z,39.80
2022-08-25T14:04:34.881Z,40.14
2022-08-25T14:07:14.041Z,43.07
2022-08-25T14:09:52.414Z,42.37
2022-08-25T14:12:33.201Z,40.58
2022-08-25T14:15:01.684Z,40.76
2022-08-25T14:17:39.315Z,41.57
2022-08-25T14:20:17.211Z,40.16
2022-08-25T14:22:44.072Z,40.51
2022-08-25T14:25:11.327Z,38.97
2022-08-25T14:28:03.575Z,41.05
2022-08-25T14:30:30.123Z,41.55
2022-08-25T14:32:57.243Z,42.09
2022-08-25T14:35:24.126Z,40.21
2022-08-25T14:37:51.049Z,39.49
2022-08-25T14:40:20.015Z,41.49
2022-08-25T14:42:47.810Z,41.27
2022-08-25T14:45:16.467Z,42.75
2022-08-25T14:47:46.351Z,43.48
2022-08-25T14:50:20.165Z,43.49
2022-08-25T14:52:48.343Z,42.72
2022-08-25T14:55:31.846Z,42.88
2022-08-25T14:57:59.778Z,41.65
2022-08-25T15:00:26.694Z,43.01
2022-08-25T15:02:55.048Z,44.15
2022-08-25T15:05:28.428Z,45.84
2022-08-25T15:08:14.296Z,46.71
2022-08-25T15:10:41.874Z,46.13
2022-08-25T15:13:10.528Z,46.43
2022-08-25T15:15:52.613Z,47.03
2022-08-25T15:18:21.847Z,49.45
2022-08-25T15:20:49.928Z,48.11
2022-08-25T15:23:18.567Z,47.01
2022-08-25T15:25:52.857Z,48.54
2022-08-25T15:28:22.236Z,47.09
2022-08-25T15:30:50.416Z,48.15
2022-08-25T15:33:17.659Z,45.32
2022-08-25T15:35:47.571Z,46.46
2022-08-25T15:38:16.877Z,47.11
2022-08-25T15:40:43.579Z,46.91
2022-08-25T15:43:10.363Z,46.19
2022-08-25T15:45:37.656Z,46.59
2022-08-25T15:48:06.901Z,47.45
2022-08-25T15:50:39.355Z,48.73
2022-08-25T15:53:06.322Z,48.46
2022-08-25T15:55:39.439Z,47.76
2022-08-25T15:58:06.768Z,47.47
2022-08-25T16:00:35.708Z,48.77
2022-08-25T16:03:04.813Z,48.20
2022-08-25T16:05:37.311Z,48.78
2022-08-25T16:08:04.811Z,50.99
2022-08-25T16:10:36.552Z,50.20
2022-08-25T16:13:04.758Z,49.36
2022-08-25T16:15:32.503Z,49.57
2022-08-25T16:18:00.574Z,49.85
2022-08-25T16:20:31.452Z,49.44
2022-08-25T16:23:02.473Z,50.33
2022-08-25T16:25:31.438Z,51.69
2022-08-25T16:27:58.127Z,52.62
2022-08-25T16:30:25.229Z,51.68
2022-08-25T16:32:54.351Z,53.18
2022-08-25T16:35:21.228Z,52.12
2022-08-25T16:37:49.561Z,52.03
2022-08-25T16:40:18.875Z,53.69
2022-08-25T16:42:46.739Z,53.29
2022-08-25T16:45:13.784Z,52.23
2022-08-25T16:47:42.746Z,53.00
2022-08-25T16:50:10.813Z,53.98
2022-08-25T16:52:56.499Z,53.67
2022-08-25T16:55:25.195Z,54.28
2022-08-25T16:57:54.218Z,54.62
2022-08-25T17:00:28.137Z,54.67
2022-08-25T17:02:59.377Z,54.68
2022-08-25T17:05:29.595Z,56.04
2022-08-25T17:08:17.506Z,57.77
2022-08-25T17:10:44.739Z,55.51
2022-08-25T17:13:12.816Z,56.62
2022-08-25T17:15:42.441Z,55.75
2022-08-25T17:18:11.191Z,55.31
2022-08-25T17:20:40.396Z,56.17
2022-08-25T17:23:12.703Z,56.40
2022-08-25T17:25:42.973Z,57.29
2022-08-25T17:28:11.922Z,58.16
2022-08-25T17:30:39.311Z,58.66
2022-08-25T17:33:06.087Z,59.56
2022-08-25T17:35:38.858Z,60.17
2022-08-25T17:38:06.274Z,60.69
2022-08-25T17:40:33.987Z,61.55
2022-08-25T17:43:01.790Z,62.09
2022-08-25T17:45:28.450Z,62.60
2022-08-25T17:47:55.662Z,63.30
2022-08-25T17:50:24.581Z,63.85
2022-08-25T17:52:52.420Z,66.17
2022-08-25T17:55:24.175Z,66.57
2022-08-25T17:57:51.275Z,66.69
2022-08-25T18:00:20.014Z,67.45
2022-08-25T18:02:50.134Z,66.97
2022-08-25T18:05:17.495Z,67.33
2022-08-25T18:07:44.189Z,68.43
2022-08-25T18:10:11.518Z,70.38
2022-08-25T18:12:39.210Z,71.97
2022-08-25T18:15:08.211Z,72.12
2022-08-25T18:17:35.826Z,72.02
2022-08-25T18:20:06.226Z,71.96
2022-08-25T18:22:33.166Z,72.33
2022-08-25T18:25:00.305Z,73.34
2022-08-25T18:27:28.405Z,74.28
2022-08-25T18:29:56.025Z,74.90
2022-08-25T18:32:26.112Z,75.13
2022-08-25T18:34:53.393Z,75.64
2022-08-25T18:37:39.167Z,75.83
2022-08-25T18:40:25.446Z,76.07
2022-08-25T18:42:57.945Z,76.44
2022-08-25T18:45:28.439Z,76.48
2022-08-25T18:47:58.132Z,76.35
2022-08-25T18:50:30.354Z,76.30
2022-08-25T18:52:57.477Z,76.19
2022-08-25T18:55:24.634Z,76.10
2022-08-25T18:57:51.677Z,76.48
2022-08-25T19:00:21.251Z,76.56
2022-08-25T19:02:52.790Z,76.81
2022-08-25T19:05:24.228Z,77.43
2022-08-25T19:07:54.228Z,77.50
2022-08-25T19:10:24.071Z,77.52
2022-08-25T19:12:52.178Z,77.61
2022-08-25T19:15:18.901Z,78.36
2022-08-25T19:17:53.161Z,78.37
2022-08-25T19:20:21.882Z,78.97
2022-08-25T19:22:49.449Z,79.26
2022-08-25T19:25:18.598Z,79.55
2022-08-25T19:27:46.310Z,80.32
2022-08-25T19:30:14.749Z,81.52
2022-08-25T19:32:43.830Z,82.06
2022-08-25T19:35:34.524Z,82.08
2022-08-25T19:38:07.160Z,81.80
2022-08-25T19:40:52.156Z,81.98
2022-08-25T19:43:19.060Z,81.92
2022-08-25T19:45:46.401Z,81.53
2022-08-25T19:48:14.099Z,81.83
2022-08-25T19:50:42.228Z,81.95
2022-08-25T19:53:09.038Z,82.34
2022-08-25T19:55:35.955Z,82.68
2022-08-25T19:58:03.555Z,82.53
2022-08-25T20:00:34.136Z,81.92
2022-08-25T20:03:04.149Z,82.65
2022-08-25T20:05:31.581Z,83.54
2022-08-25T20:07:59.578Z,84.32
2022-08-25T20:10:29.719Z,84.25
2022-08-25T20:12:56.678Z,84.52
2022-08-25T20:15:24.812Z,85.35
2022-08-25T20:17:51.776Z,86.03
2022-08-25T20:20:25.778Z,86.60
2022-08-25T20:23:19.766Z,86.88
2022-08-25T20:25:46.719Z,86.91
2022-08-25T20:28:18.649Z,86.64
2022-08-25T20:30:46.121Z,87.20
2022-08-25T20:33:13.345Z,86.75
2022-08-25T20:35:48.339Z,86.26
2022-08-25T20:38:15.031Z,86.00
2022-08-25T20:40:42.086Z,86.54
2022-08-25T20:43:12.090Z,86.64
2022-08-25T20:45:39.582Z,86.59
2022-08-25T20:48:06.390Z,87.20
2022-08-25T20:50:33.742Z,87.33
2022-08-25T20:53:00.931Z,87.65
2022-08-25T20:55:28.886Z,87.87
2022-08-25T20:57:55.534Z,87.65
2022-08-25T21:00:25.302Z,87.13
2022-08-25T21:02:53.423Z,86.72
2022-08-25T21:05:20.217Z,86.80
2022-08-25T21:07:46.993Z,86.93
2022-08-25T21:10:15.961Z,87.62
2022-08-25T21:12:45.240Z,88.13
2022-08-25T21:15:13.178Z,88.44
2022-08-25T21:17:49.690Z,88.00
2022-08-25T21:20:17.179Z,88.33
2022-08-25T21:22:43.828Z,88.70
2022-08-25T21:25:10.980Z,88.80
2022-08-25T21:27:37.764Z,89.12
2022-08-25T21:30:06.843Z,89.29
2022-08-25T21:32:34.589Z,88.63
2022-08-25T21:35:01.559Z,88.17
2022-08-25T21:37:28.356Z,87.46
2022-08-25T21:39:55.237Z,87.59
2022-08-25T21:42:23.843Z,88.17
2022-08-25T21:44:52.212Z,88.79
2022-08-25T21:47:21.231Z,89.14
2022-08-25T21:49:48.787Z,89.64
2022-08-25T21:52:15.859Z,89.60
2022-08-25T21:54:43.949Z,89.27
2022-08-25T21:57:10.676Z,89.54
2022-08-25T21:59:43.507Z,89.59
2022-08-25T22:02:13.110Z,90.43
2022-08-25T22:04:40.701Z,91.69
2022-08-25T22:07:08.815Z,92.80
2022-08-25T22:09:36.112Z,92.96
2022-08-25T22:12:04.678Z,92.96
2022-08-25T22:14:32.390Z,92.54
2022-08-25T22:16:59.995Z,91.73
2022-08-25T22:19:27.284Z,92.14
2022-08-25T22:21:55.580Z,93.11
2022-08-25T22:24:22.449Z,93.47
2022-08-25T22:26:51.460Z,93.66
2022-08-25T22:29:23.241Z,93.37
2022-08-25T22:31:59.826Z,93.48
2022-08-25T22:34:32.462Z,93.70
2022-08-25T22:37:01.319Z,94.57
2022-08-25T22:39:31.886Z,95.23
2022-08-25T22:41:58.890Z,95.39
2022-08-25T22:44:26.345Z,95.70
2022-08-25T22:46:54.275Z,95.78
2022-08-25T22:49:21.800Z,95.99
2022-08-25T22:51:48.880Z,96.23
2022-08-25T22:54:15.876Z,96.52
2022-08-25T22:56:42.964Z,96.45
2022-08-25T22:59:12.516Z,96.67
2022-08-25T23:01:39.830Z,96.57
2022-08-25T23:04:07.414Z,96.63
2022-08-25T23:06:37.200Z,96.92
2022-08-25T23:09:06.708Z,96.86
2022-08-25T23:11:33.719Z,97.11
2022-08-25T23:14:00.619Z,97.91
2022-08-25T23:16:28.481Z,97.93
2022-08-25T23:18:55.273Z,97.96
2022-08-25T23:21:41.275Z,98.23
2022-08-25T23:24:11.347Z,98.00
2022-08-25T23:26:42.518Z,98.39
2022-08-25T23:29:18.488Z,98.77
2022-08-25T23:31:47.738Z,98.21
2022-08-25T23:34:15.479Z,98.24
2022-08-25T23:36:42.928Z,97.57
2022-08-25T23:39:11.525Z,97.22
2022-08-25T23:41:38.440Z,97.50
2022-08-25T23:44:17.433Z,97.91
2022-08-25T23:46:47.098Z,97.99
2022-08-25T23:49:18.397Z,98.44
2022-08-25T23:51:50.324Z,98.62
2022-08-25T23:54:20.455Z,98.23
2022-08-25T23:56:52.382Z,97.90
2022-08-25T23:59:24.192Z,97.82
